Time;durP1;ratioP1;P1;durP2;ratioP2;P2;SDS_P1;SDS_P2;PMS_P1;PMS_P2;Temp;Humidity;BMP_temperature;BMP_pressure;BME280_temperature;BME280_humidity;BME280_pressure;Samples;Min_cycle;Max_cycle;Signal;HPM_P1;HPM_P2
2022/05/03 00:02:35;;;;;;;7.85;3.25;;;;;;;;;;5032602;28;20501;-79
2022/05/03 00:05:07;;;;;;;4.93;2.97;;;;;;;;;;5032464;28;20025;-80
2022/05/03 00:07:42;;;;;;;5.82;2.50;;;;;;;;;;5047953;28;20087;-80
2022/05/03 00:10:09;;;;;;;4.47;2.85;;;;;;;;;;5032527;28;20079;-80
2022/05/03 00:12:42;;;;;;;4.35;2.85;;;;;;;;;;5047851;28;20025;-80
2022/05/03 00:15:08;;;;;;;5.93;3.50;;;;;;;;;;5032561;28;20017;-79
2022/05/03 00:17:35;;;;;;;5.45;3.33;;;;;;;;;;5048013;28;20429;-79
2022/05/03 00:20:02;;;;;;;5.25;2.60;;;;;;;;;;5032673;28;20037;-79
2022/05/03 00:22:28;;;;;;;4.38;3.13;;;;;;;;;;5032730;28;20442;-79
2022/05/03 00:24:54;;;;;;;5.05;3.10;;;;;;;;;;5032828;28;20021;-79
2022/05/03 00:27:25;;;;;;;5.82;3.13;;;;;;;;;;5032815;28;20018;-79
2022/05/03 00:29:55;;;;;;;5.72;3.25;;;;;;;;;;5031604;28;20045;-79
2022/05/03 00:32:28;;;;;;;4.72;3.05;;;;;;;;;;5012004;28;20029;-79
2022/05/03 00:34:57;;;;;;;9.38;3.17;;;;;;;;;;5013367;28;20089;-79
2022/05/03 00:37:23;;;;;;;7.22;3.15;;;;;;;;;;5013098;28;20018;-79
2022/05/03 00:39:49;;;;;;;5.95;3.13;;;;;;;;;;5013297;28;20060;-79
2022/05/03 00:42:19;;;;;;;6.18;3.22;;;;;;;;;;5013138;28;20695;-79
2022/05/03 00:45:12;;;;;;;5.00;3.75;;;;;;;;;;5013367;28;20121;-79
2022/05/03 00:47:51;;;;;;;5.50;3.53;;;;;;;;;;5012612;28;20124;-79
2022/05/03 00:50:55;;;;;;;7.72;3.40;;;;;;;;;;5012815;28;20476;-79
2022/05/03 00:53:34;;;;;;;4.88;3.22;;;;;;;;;;5010795;28;20038;-79
2022/05/03 00:56:15;;;;;;;4.20;2.95;;;;;;;;;;5010817;28;20101;-79
2022/05/03 00:59:00;;;;;;;7.47;3.67;;;;;;;;;;5011719;28;20058;-79
2022/05/03 01:01:44;;;;;;;6.00;3.55;;;;;;;;;;5003301;28;20451;-79
2022/05/03 01:04:13;;;;;;;7.30;3.25;;;;;;;;;;5014331;28;20121;-79
2022/05/03 01:06:52;;;;;;;6.00;3.38;;;;;;;;;;5014425;28;20128;-79
2022/05/03 01:09:22;;;;;;;6.75;3.30;;;;;;;;;;4997734;28;20022;-79
2022/05/03 01:11:59;;;;;;;5.53;3.10;;;;;;;;;;5014331;28;20026;-79
2022/05/03 01:14:44;;;;;;;5.35;3.50;;;;;;;;;;5014411;28;20541;-79
2022/05/03 01:17:10;;;;;;;5.35;3.22;;;;;;;;;;5014280;28;20080;-79
2022/05/03 01:19:42;;;;;;;4.95;3.45;;;;;;;;;;4997377;28;20383;-79
2022/05/03 01:22:28;;;;;;;6.75;3.55;;;;;;;;;;5013825;28;20040;-79
2022/05/03 01:25:04;;;;;;;6.32;3.83;;;;;;;;;;5015336;28;20046;-79
2022/05/03 01:27:52;;;;;;;5.53;3.45;;;;;;;;;;5016180;28;20026;-79
2022/05/03 01:30:18;;;;;;;5.30;3.50;;;;;;;;;;5016492;28;20038;-79
2022/05/03 01:32:45;;;;;;;8.70;3.25;;;;;;;;;;5035644;28;20056;-79
2022/05/03 01:35:15;;;;;;;5.60;3.50;;;;;;;;;;5033608;28;20368;-79
2022/05/03 01:37:47;;;;;;;7.05;3.65;;;;;;;;;;5033824;28;20071;-78
2022/05/03 01:40:24;;;;;;;5.78;4.03;;;;;;;;;;5035251;28;20128;-79
2022/05/03 01:42:50;;;;;;;8.05;3.95;;;;;;;;;;5035546;28;20017;-79
2022/05/03 01:45:25;;;;;;;8.77;4.32;;;;;;;;;;5035205;28;20037;-79
2022/05/03 01:48:14;;;;;;;8.98;4.10;;;;;;;;;;5035657;28;20026;-78
2022/05/03 01:50:53;;;;;;;7.15;3.92;;;;;;;;;;4994075;28;20061;-79
2022/05/03 01:53:37;;;;;;;9.93;4.30;;;;;;;;;;4994047;28;20481;-79
2022/05/03 01:56:35;;;;;;;7.40;4.07;;;;;;;;;;4994103;28;20112;-78
2022/05/03 01:59:06;;;;;;;6.97;3.85;;;;;;;;;;4935840;29;20050;-78
2022/05/03 02:01:39;;;;;;;6.30;3.78;;;;;;;;;;4935699;29;20040;-78
2022/05/03 02:04:31;;;;;;;6.22;4.40;;;;;;;;;;4936073;29;20108;-78
2022/05/03 02:06:59;;;;;;;6.93;4.70;;;;;;;;;;4935520;29;20106;-78
2022/05/03 02:09:28;;;;;;;8.70;4.78;;;;;;;;;;4935183;29;20039;-79
2022/05/03 02:12:04;;;;;;;7.25;4.60;;;;;;;;;;4935559;29;20471;-79
2022/05/03 02:14:44;;;;;;;9.35;4.45;;;;;;;;;;4935582;29;20082;-79
2022/05/03 02:17:30;;;;;;;7.30;4.28;;;;;;;;;;4935445;29;20043;-78
2022/05/03 02:19:56;;;;;;;5.97;3.90;;;;;;;;;;4935781;29;20027;-79
2022/05/03 02:22:45;;;;;;;7.45;4.60;;;;;;;;;;4935495;29;20126;-78
2022/05/03 02:25:20;;;;;;;6.80;3.97;;;;;;;;;;4935241;29;20108;-79
2022/05/03 02:27:57;;;;;;;8.07;4.32;;;;;;;;;;4966783;28;20393;-79
2022/05/03 02:30:25;;;;;;;7.68;4.32;;;;;;;;;;4993224;28;20085;-78
2022/05/03 02:32:57;;;;;;;7.38;4.30;;;;;;;;;;4993297;28;20034;-79
2022/05/03 02:35:27;;;;;;;7.80;4.38;;;;;;;;;;5027863;28;20041;-79
2022/05/03 02:37:57;;;;;;;6.45;4.15;;;;;;;;;;5033705;28;20034;-79
2022/05/03 02:40:29;;;;;;;7.68;4.78;;;;;;;;;;5034369;28;20032;-79
2022/05/03 02:42:56;;;;;;;6.97;4.35;;;;;;;;;;5034684;28;20109;-79
2022/05/03 02:45:22;;;;;;;7.00;4.50;;;;;;;;;;5034633;28;20025;-79
2022/05/03 02:48:07;;;;;;;6.93;3.90;;;;;;;;;;5034311;28;20037;-79
2022/05/03 02:50:56;;;;;;;6.60;4.35;;;;;;;;;;5034301;28;20493;-79
2022/05/03 02:53:42;;;;;;;8.93;4.97;;;;;;;;;;4976150;28;20409;-79
2022/05/03 02:56:10;;;;;;;15.43;4.88;;;;;;;;;;4993005;28;20045;-78
2022/05/03 02:59:02;;;;;;;10.88;4.70;;;;;;;;;;4992796;28;20045;-79
2022/05/03 03:01:49;;;;;;;8.82;4.88;;;;;;;;;;4992737;28;20413;-79
2022/05/03 03:04:36;;;;;;;8.27;4.85;;;;;;;;;;4992837;28;20065;-79
2022/05/03 03:07:03;;;;;;;9.32;5.07;;;;;;;;;;4992599;28;20034;-79
2022/05/03 03:09:41;;;;;;;8.38;4.85;;;;;;;;;;4992624;28;20026;-79
2022/05/03 03:12:28;;;;;;;8.85;5.95;;;;;;;;;;4992621;28;20493;-79
2022/05/03 03:15:06;;;;;;;8.57;5.10;;;;;;;;;;4992371;28;20037;-79
2022/05/03 03:17:35;;;;;;;7.97;5.00;;;;;;;;;;4992184;28;20046;-79
2022/05/03 03:20:04;;;;;;;7.35;4.97;;;;;;;;;;4992266;28;20077;-79
2022/05/03 03:22:37;;;;;;;10.18;5.38;;;;;;;;;;4991767;28;20022;-78
2022/05/03 03:25:04;;;;;;;8.30;4.65;;;;;;;;;;4992338;28;20113;-78
2022/05/03 03:27:31;;;;;;;7.07;4.10;;;;;;;;;;4991956;28;20027;-79
2022/05/03 03:29:58;;;;;;;8.88;4.85;;;;;;;;;;4999094;28;20030;-79
2022/05/03 03:32:25;;;;;;;8.15;4.47;;;;;;;;;;5014136;28;20112;-79
2022/05/03 03:34:53;;;;;;;7.60;4.32;;;;;;;;;;5013787;28;20535;-79
2022/05/03 03:37:20;;;;;;;8.10;4.78;;;;;;;;;;5028896;28;20034;-78
2022/05/03 03:39:46;;;;;;;10.23;5.20;;;;;;;;;;5013708;28;20026;-78
2022/05/03 03:42:12;;;;;;;11.48;5.53;;;;;;;;;;5028678;28;20061;-79
2022/05/03 03:44:38;;;;;;;10.48;5.30;;;;;;;;;;5013876;28;20057;-78
2022/05/03 03:47:04;;;;;;;8.57;4.90;;;;;;;;;;5013005;28;20061;-79
2022/05/03 03:49:30;;;;;;;10.13;5.00;;;;;;;;;;5012932;28;20033;-79
2022/05/03 03:51:59;;;;;;;8.82;4.47;;;;;;;;;;5013075;28;20026;-78
2022/05/03 03:54:26;;;;;;;8.75;4.53;;;;;;;;;;5013352;28;20037;-78
2022/05/03 03:56:52;;;;;;;7.45;4.82;;;;;;;;;;5013415;28;20516;-79
2022/05/03 03:59:18;;;;;;;8.43;4.95;;;;;;;;;;5013610;28;20034;-79
2022/05/03 04:01:45;;;;;;;8.27;4.20;;;;;;;;;;5023118;28;20041;-79
2022/05/03 04:04:11;;;;;;;8.82;4.55;;;;;;;;;;5032629;28;20136;-79
2022/05/03 04:06:37;;;;;;;10.20;4.50;;;;;;;;;;5032597;28;20329;-78
2022/05/03 04:09:04;;;;;;;10.23;4.50;;;;;;;;;;5032893;28;20029;-78
2022/05/03 04:11:41;;;;;;;13.48;5.40;;;;;;;;;;5033261;28;20068;-79
2022/05/03 04:14:07;;;;;;;8.63;4.93;;;;;;;;;;5032850;28;20026;-79
2022/05/03 04:16:33;;;;;;;9.65;4.80;;;;;;;;;;5033054;28;20045;-79
2022/05/03 04:19:00;;;;;;;7.43;4.70;;;;;;;;;;5033004;28;20060;-79
2022/05/03 04:21:26;;;;;;;9.57;4.88;;;;;;;;;;5032678;28;20025;-79
2022/05/03 04:23:52;;;;;;;10.93;5.40;;;;;;;;;;5032879;28;20044;-78
2022/05/03 04:26:18;;;;;;;8.02;4.60;;;;;;;;;;5032814;28;20453;-79
2022/05/03 04:28:44;;;;;;;9.00;4.45;;;;;;;;;;5032645;28;20017;-79
2022/05/03 04:31:10;;;;;;;8.52;4.25;;;;;;;;;;5035893;28;20033;-79
2022/05/03 04:33:36;;;;;;;11.65;4.63;;;;;;;;;;5015150;28;20085;-79
2022/05/03 04:36:04;;;;;;;8.55;4.30;;;;;;;;;;5017110;28;20041;-79
2022/05/03 04:38:30;;;;;;;8.95;4.32;;;;;;;;;;5017144;28;20053;-79
2022/05/03 04:40:59;;;;;;;9.05;4.80;;;;;;;;;;5016914;28;20092;-79
2022/05/03 04:43:25;;;;;;;10.05;4.50;;;;;;;;;;5016463;28;20021;-79
2022/05/03 04:45:51;;;;;;;10.95;5.25;;;;;;;;;;5016311;28;20030;-79
2022/05/03 04:48:18;;;;;;;10.18;4.68;;;;;;;;;;5016249;28;20376;-78
2022/05/03 04:50:44;;;;;;;11.88;4.97;;;;;;;;;;5014942;28;20117;-79
2022/05/03 04:53:10;;;;;;;15.30;5.20;;;;;;;;;;5016217;28;20022;-79
2022/05/03 04:55:39;;;;;;;16.02;5.68;;;;;;;;;;5016654;28;20109;-79
2022/05/03 04:58:05;;;;;;;15.80;5.00;;;;;;;;;;5015189;28;20045;-79
2022/05/03 05:00:31;;;;;;;7.53;5.07;;;;;;;;;;5014886;28;20472;-79
2022/05/03 05:02:57;;;;;;;12.27;5.38;;;;;;;;;;5035348;28;20026;-79
2022/05/03 05:05:23;;;;;;;18.55;6.03;;;;;;;;;;5034758;28;20025;-79
2022/05/03 05:07:49;;;;;;;9.45;4.90;;;;;;;;;;5035715;28;20843;-79
2022/05/03 05:10:26;;;;;;;13.43;4.78;;;;;;;;;;5051517;28;20427;-78
2022/05/03 05:12:53;;;;;;;14.38;4.95;;;;;;;;;;5036203;28;20044;-79
2022/05/03 05:15:19;;;;;;;12.38;5.32;;;;;;;;;;5036079;28;20026;-78
2022/05/03 05:17:45;;;;;;;20.58;5.68;;;;;;;;;;5035939;28;20025;-79
2022/05/03 05:20:11;;;;;;;10.95;5.50;;;;;;;;;;5035991;28;20036;-79
2022/05/03 05:22:37;;;;;;;14.60;5.55;;;;;;;;;;5035932;28;20148;-79
2022/05/03 05:25:03;;;;;;;18.67;5.45;;;;;;;;;;5035845;28;20125;-79
2022/05/03 05:27:29;;;;;;;10.77;5.68;;;;;;;;;;5035844;28;20037;-79
2022/05/03 05:29:55;;;;;;;12.43;5.78;;;;;;;;;;5033595;28;20376;-79
2022/05/03 05:32:22;;;;;;;12.80;6.22;;;;;;;;;;5034064;28;20246;-79
2022/05/03 05:34:48;;;;;;;13.98;5.38;;;;;;;;;;5035589;28;20109;-79
2022/05/03 05:37:14;;;;;;;10.82;5.47;;;;;;;;;;5035795;28;20383;-79
2022/05/03 05:39:40;;;;;;;15.93;5.55;;;;;;;;;;5035614;28;20018;-78
2022/05/03 05:42:06;;;;;;;14.02;5.82;;;;;;;;;;5035393;28;20831;-79
2022/05/03 05:44:32;;;;;;;11.70;5.22;;;;;;;;;;5034656;28;20075;-79
2022/05/03 05:46:58;;;;;;;12.00;6.10;;;;;;;;;;5035832;28;20037;-80
2022/05/03 05:49:24;;;;;;;19.80;5.70;;;;;;;;;;5035998;28;20026;-80
2022/05/03 05:51:50;;;;;;;11.20;5.82;;;;;;;;;;5035484;28;20029;-80
2022/05/03 05:54:16;;;;;;;19.17;6.72;;;;;;;;;;5035363;28;20017;-79
2022/05/03 05:56:44;;;;;;;11.02;5.90;;;;;;;;;;5035507;28;20389;-79
2022/05/03 05:59:10;;;;;;;18.25;6.93;;;;;;;;;;5035484;28;20022;-79
2022/05/03 06:01:37;;;;;;;17.27;6.18;;;;;;;;;;5025177;28;20030;-79
2022/05/03 06:04:04;;;;;;;14.70;5.78;;;;;;;;;;5015527;28;20069;-79
2022/05/03 06:06:32;;;;;;;12.35;5.70;;;;;;;;;;5014751;28;20564;-79
2022/05/03 06:08:58;;;;;;;6.93;4.90;;;;;;;;;;5014680;28;20022;-79
2022/05/03 06:11:24;;;;;;;8.25;4.60;;;;;;;;;;5014817;28;20022;-79
2022/05/03 06:13:50;;;;;;;8.27;4.82;;;;;;;;;;5015111;28;20026;-79
2022/05/03 06:16:16;;;;;;;13.07;4.47;;;;;;;;;;5013963;28;20372;-79
2022/05/03 06:18:42;;;;;;;5.80;3.90;;;;;;;;;;5017345;28;20057;-80
2022/05/03 06:21:08;;;;;;;9.13;3.92;;;;;;;;;;5023649;28;20029;-80
2022/05/03 06:23:35;;;;;;;7.72;3.90;;;;;;;;;;5015148;28;20429;-80
2022/05/03 06:26:05;;;;;;;6.95;3.85;;;;;;;;;;5027370;28;20068;-80
2022/05/03 06:28:31;;;;;;;6.22;3.85;;;;;;;;;;5022252;28;20477;-80
2022/05/03 06:30:57;;;;;;;9.38;3.53;;;;;;;;;;5023933;28;20025;-80
2022/05/03 06:33:23;;;;;;;8.60;4.28;;;;;;;;;;5034976;28;20383;-80
2022/05/03 06:35:49;;;;;;;6.70;3.55;;;;;;;;;;5034640;28;20361;-80
2022/05/03 06:38:15;;;;;;;6.80;3.75;;;;;;;;;;5034727;28;20025;-80
2022/05/03 06:40:41;;;;;;;6.55;3.78;;;;;;;;;;5034624;28;20044;-80
2022/05/03 06:43:08;;;;;;;6.25;3.70;;;;;;;;;;5024904;28;20022;-80
2022/05/03 06:45:34;;;;;;;8.63;4.10;;;;;;;;;;5026934;28;20033;-80
2022/05/03 06:48:00;;;;;;;7.18;4.78;;;;;;;;;;5017734;28;20029;-80
2022/05/03 06:50:30;;;;;;;7.00;4.22;;;;;;;;;;5029669;28;20025;-79
2022/05/03 06:52:56;;;;;;;18.90;5.03;;;;;;;;;;5032012;28;20029;-80
2022/05/03 06:55:22;;;;;;;8.80;5.05;;;;;;;;;;5030372;28;20030;-79
2022/05/03 06:57:48;;;;;;;11.85;6.00;;;;;;;;;;5018776;28;20046;-80
2022/05/03 07:00:15;;;;;;;14.57;7.35;;;;;;;;;;5033840;28;20051;-80
2022/05/03 07:02:44;;;;;;;12.82;7.35;;;;;;;;;;5026379;28;20144;-80
2022/05/03 07:05:10;;;;;;;18.75;8.25;;;;;;;;;;5025295;28;20033;-80
2022/05/03 07:07:36;;;;;;;10.88;7.32;;;;;;;;;;5031361;28;20017;-80
2022/05/03 07:10:03;;;;;;;15.18;7.82;;;;;;;;;;5016485;28;20112;-80
2022/05/03 07:12:30;;;;;;;15.55;8.82;;;;;;;;;;5016675;28;20026;-80
2022/05/03 07:14:59;;;;;;;13.90;8.75;;;;;;;;;;5027919;28;20084;-80
2022/05/03 07:22:55;;;;;;;12.77;8.32;;;;;;;;;;5017436;28;20084;-80
2022/05/03 07:25:21;;;;;;;19.20;9.02;;;;;;;;;;5014301;28;20407;-80
2022/05/03 07:27:47;;;;;;;15.38;9.00;;;;;;;;;;5018434;28;20353;-80
2022/05/03 07:30:14;;;;;;;12.48;8.38;;;;;;;;;;5015190;28;20393;-80
2022/05/03 07:32:41;;;;;;;15.00;8.45;;;;;;;;;;5041554;28;20108;-80
2022/05/03 07:35:07;;;;;;;14.15;8.75;;;;;;;;;;5020987;28;20030;-80
2022/05/03 07:37:33;;;;;;;14.75;8.23;;;;;;;;;;5031039;28;20397;-80
2022/05/03 07:39:59;;;;;;;15.50;8.02;;;;;;;;;;5032373;28;20459;-80
2022/05/03 07:42:25;;;;;;;13.52;8.75;;;;;;;;;;5030758;28;20029;-80
2022/05/03 07:44:51;;;;;;;16.23;8.90;;;;;;;;;;5024385;28;20025;-80
2022/05/03 07:47:17;;;;;;;13.57;8.82;;;;;;;;;;5018271;28;20033;-80
2022/05/03 07:49:43;;;;;;;13.65;8.27;;;;;;;;;;5022601;28;20655;-79
2022/05/03 07:52:09;;;;;;;15.98;8.18;;;;;;;;;;5019342;28;20018;-77
2022/05/03 07:54:35;;;;;;;12.25;8.32;;;;;;;;;;5015060;28;20069;-81
2022/05/03 07:57:02;;;;;;;16.75;8.45;;;;;;;;;;5016661;28;20050;-80
2022/05/03 07:59:28;;;;;;;13.85;8.93;;;;;;;;;;5015046;28;20026;-79
2022/05/03 08:01:55;;;;;;;20.02;10.35;;;;;;;;;;5025759;28;20022;-80
2022/05/03 08:04:21;;;;;;;18.67;10.27;;;;;;;;;;5032951;28;20448;-79
2022/05/03 08:06:47;;;;;;;12.60;9.30;;;;;;;;;;5032875;28;20029;-83
2022/05/03 08:09:13;;;;;;;19.92;10.75;;;;;;;;;;5032862;28;20059;-83
2022/05/03 08:11:39;;;;;;;17.55;10.70;;;;;;;;;;5048336;28;20077;-83
2022/05/03 08:14:05;;;;;;;20.65;12.02;;;;;;;;;;5033135;28;20064;-83
2022/05/03 08:16:32;;;;;;;18.52;10.68;;;;;;;;;;5033228;28;20030;-83
2022/05/03 08:18:58;;;;;;;19.00;9.98;;;;;;;;;;5048210;28;20075;-83
2022/05/03 08:21:24;;;;;;;17.90;10.55;;;;;;;;;;5033021;28;20057;-83
2022/05/03 08:23:51;;;;;;;22.58;10.80;;;;;;;;;;5032934;28;20030;-82
2022/05/03 08:26:18;;;;;;;15.68;10.52;;;;;;;;;;5032871;28;20029;-80
2022/05/03 08:28:45;;;;;;;20.05;11.90;;;;;;;;;;5032542;28;20079;-79
2022/05/03 08:31:11;;;;;;;18.70;11.77;;;;;;;;;;5035759;28;20503;-79
2022/05/03 08:33:37;;;;;;;25.73;11.40;;;;;;;;;;5013363;28;20072;-79
2022/05/03 08:36:04;;;;;;;18.17;12.20;;;;;;;;;;5028849;28;20056;-80
2022/05/03 08:44:00;;;;;;;17.83;11.80;;;;;;;;;;5019901;28;20053;-78
2022/05/03 08:46:26;;;;;;;17.85;12.38;;;;;;;;;;5013516;28;20030;-78
2022/05/03 08:48:54;;;;;;;20.95;12.65;;;;;;;;;;5011723;28;20566;-79
2022/05/03 08:51:21;;;;;;;19.70;12.85;;;;;;;;;;5014043;28;20040;-78
2022/05/03 08:53:47;;;;;;;20.83;13.10;;;;;;;;;;5028066;28;20321;-79
2022/05/03 08:56:16;;;;;;;18.77;12.55;;;;;;;;;;5025726;28;20037;-78
2022/05/03 08:58:43;;;;;;;17.42;10.93;;;;;;;;;;5022969;28;20099;-77
2022/05/03 09:01:10;;;;;;;19.05;11.60;;;;;;;;;;5027554;28;20548;-79
2022/05/03 09:03:37;;;;;;;16.67;11.18;;;;;;;;;;5034452;28;20235;-78
2022/05/03 09:06:03;;;;;;;20.98;12.00;;;;;;;;;;5023628;28;20405;-77
2022/05/03 09:08:30;;;;;;;16.67;12.40;;;;;;;;;;5016849;28;20044;-82
2022/05/03 09:10:56;;;;;;;18.13;12.02;;;;;;;;;;5031302;28;20101;-80
2022/05/03 09:13:25;;;;;;;17.88;11.45;;;;;;;;;;5030974;28;20026;-82
2022/05/03 09:16:09;;;;;;;16.70;10.23;;;;;;;;;;5032236;28;20104;-79
2022/05/03 09:18:37;;;;;;;14.38;8.93;;;;;;;;;;5031670;28;20024;-77
2022/05/03 09:24:01;;;;;;;16.48;10.95;;;;;;;;;;5026022;28;20040;-79
2022/05/03 09:26:30;;;;;;;15.15;10.48;;;;;;;;;;5027922;28;20375;-79
2022/05/03 09:29:01;;;;;;;16.00;11.68;;;;;;;;;;5027624;28;20026;-80
2022/05/03 09:31:34;;;;;;;14.73;10.45;;;;;;;;;;5022567;28;20384;-79
2022/05/03 09:34:23;;;;;;;17.85;10.88;;;;;;;;;;5020435;28;20384;-79
2022/05/03 09:36:50;;;;;;;15.38;10.52;;;;;;;;;;5027613;28;20095;-79
2022/05/03 09:39:29;;;;;;;15.07;10.40;;;;;;;;;;5033118;28;20546;-79
2022/05/03 09:42:14;;;;;;;16.55;10.00;;;;;;;;;;5021351;28;20033;-79
2022/05/03 09:44:57;;;;;;;14.02;10.40;;;;;;;;;;5021169;28;20113;-79
2022/05/03 09:47:34;;;;;;;17.88;11.13;;;;;;;;;;5033401;28;20022;-79
2022/05/03 09:50:00;;;;;;;15.40;10.27;;;;;;;;;;5029371;28;20021;-78
2022/05/03 09:52:28;;;;;;;20.48;10.60;;;;;;;;;;5026251;28;20018;-78
2022/05/03 09:55:03;;;;;;;21.10;11.40;;;;;;;;;;5027288;28;20021;-79
2022/05/03 09:57:31;;;;;;;16.30;11.40;;;;;;;;;;5035105;28;20037;-80
2022/05/03 09:59:58;;;;;;;16.45;10.80;;;;;;;;;;5029912;28;20431;-79
2022/05/03 10:02:25;;;;;;;13.38;9.52;;;;;;;;;;5020146;28;20049;-79
2022/05/03 10:04:58;;;;;;;15.88;10.85;;;;;;;;;;5031826;28;20025;-79
2022/05/03 10:07:24;;;;;;;18.40;11.93;;;;;;;;;;5021216;28;20094;-80
2022/05/03 10:09:51;;;;;;;21.88;12.73;;;;;;;;;;5021633;28;20030;-80
2022/05/03 10:12:17;;;;;;;18.17;12.93;;;;;;;;;;5024671;28;20405;-79
2022/05/03 10:14:44;;;;;;;16.48;12.05;;;;;;;;;;5021680;28;20044;-80
2022/05/03 10:20:38;;;;;;;17.90;12.45;;;;;;;;;;5026789;28;20048;-80
2022/05/03 10:23:04;;;;;;;22.15;13.43;;;;;;;;;;5022504;28;20033;-80
2022/05/03 10:25:50;;;;;;;21.48;13.45;;;;;;;;;;5022443;28;20029;-80
2022/05/03 10:28:16;;;;;;;21.67;12.68;;;;;;;;;;5020430;28;20029;-78
2022/05/03 10:31:01;;;;;;;18.00;13.30;;;;;;;;;;5028766;28;20092;-80
2022/05/03 10:33:28;;;;;;;22.67;12.48;;;;;;;;;;5041045;28;20025;-80
2022/05/03 10:35:55;;;;;;;21.95;13.98;;;;;;;;;;5030305;28;20022;-80
2022/05/03 10:38:40;;;;;;;22.67;13.48;;;;;;;;;;5023379;28;20093;-80
2022/05/03 10:41:10;;;;;;;18.20;12.55;;;;;;;;;;5022224;28;20384;-80
2022/05/03 10:43:37;;;;;;;21.02;13.07;;;;;;;;;;5034515;28;20052;-80
2022/05/03 10:46:13;;;;;;;19.42;12.93;;;;;;;;;;5032731;28;20392;-80
2022/05/03 10:48:43;;;;;;;18.95;13.20;;;;;;;;;;5034242;28;20017;-81
2022/05/03 10:51:11;;;;;;;16.88;11.70;;;;;;;;;;5025861;28;20025;-80
2022/05/03 10:53:39;;;;;;;23.33;12.65;;;;;;;;;;5023882;28;20056;-80
2022/05/03 10:56:18;;;;;;;22.10;12.48;;;;;;;;;;5020600;28;20105;-81
2022/05/03 10:59:03;;;;;;;20.42;12.77;;;;;;;;;;5028389;28;20076;-80
2022/05/03 11:01:29;;;;;;;19.17;12.45;;;;;;;;;;5026052;28;20013;-78
2022/05/03 11:03:58;;;;;;;20.80;12.52;;;;;;;;;;5019287;28;20033;-77
2022/05/03 11:06:28;;;;;;;19.33;13.13;;;;;;;;;;5023907;28;20349;-80
2022/05/03 11:11:43;;;;;;;21.42;13.38;;;;;;;;;;5027753;28;20040;-80
2022/05/03 11:14:21;;;;;;;21.80;12.55;;;;;;;;;;5022155;28;20022;-80
2022/05/03 11:17:05;;;;;;;13.90;10.50;;;;;;;;;;5024914;28;20029;-78
2022/05/03 11:19:35;;;;;;;15.27;9.77;;;;;;;;;;5029421;28;20087;-77
2022/05/03 11:22:01;;;;;;;15.57;10.98;;;;;;;;;;5028639;28;20029;-80
2022/05/03 11:24:28;;;;;;;15.23;10.82;;;;;;;;;;5021875;28;20030;-80
2022/05/03 11:26:59;;;;;;;14.88;10.40;;;;;;;;;;5023809;28;20029;-81
2022/05/03 11:29:29;;;;;;;13.57;9.10;;;;;;;;;;5025977;28;20024;-80
2022/05/03 11:31:55;;;;;;;15.02;9.73;;;;;;;;;;5027672;28;20067;-80
2022/05/03 11:34:21;;;;;;;13.13;8.40;;;;;;;;;;5020257;28;20452;-80
2022/05/03 11:36:50;;;;;;;11.40;7.43;;;;;;;;;;5023464;28;20030;-80
2022/05/03 11:39:16;;;;;;;11.05;7.72;;;;;;;;;;5021139;28;20109;-80
2022/05/03 11:41:42;;;;;;;15.65;8.80;;;;;;;;;;5021460;28;20033;-80
2022/05/03 11:44:08;;;;;;;13.88;9.32;;;;;;;;;;5023799;28;20026;-80
2022/05/03 11:46:35;;;;;;;13.23;9.95;;;;;;;;;;5021322;28;20026;-78
2022/05/03 11:49:08;;;;;;;15.85;9.77;;;;;;;;;;5023977;28;20465;-80
2022/05/03 11:57:41;;;;;;;12.82;8.35;;;;;;;;;;4990106;28;20062;-81
2022/05/03 12:00:10;;;;;;;12.88;7.43;;;;;;;;;;4989910;28;20477;-81
2022/05/03 12:02:37;;;;;;;12.25;8.50;;;;;;;;;;4955777;28;20129;-81
2022/05/03 12:05:07;;;;;;;13.50;9.98;;;;;;;;;;4954395;28;20078;-82
2022/05/03 12:08:01;;;;;;;15.98;10.98;;;;;;;;;;4970805;28;20031;-81
2022/05/03 12:10:37;;;;;;;16.40;10.23;;;;;;;;;;4970775;28;20366;-81
2022/05/03 12:13:17;;;;;;;15.00;10.27;;;;;;;;;;4971587;28;20497;-81
2022/05/03 12:15:45;;;;;;;15.25;11.50;;;;;;;;;;4971787;28;20092;-81
2022/05/03 12:18:18;;;;;;;16.77;11.48;;;;;;;;;;4971581;28;20019;-81
2022/05/03 12:20:47;;;;;;;18.27;12.63;;;;;;;;;;4971382;28;20532;-81
2022/05/03 12:23:13;;;;;;;24.73;15.73;;;;;;;;;;4971476;28;20023;-81
2022/05/03 12:25:40;;;;;;;29.65;18.30;;;;;;;;;;4971380;28;20065;-80
2022/05/03 12:28:06;;;;;;;33.70;19.75;;;;;;;;;;4988965;28;20053;-82
2022/05/03 12:30:32;;;;;;;38.80;19.48;;;;;;;;;;5019343;28;20014;-82
2022/05/03 12:33:02;;;;;;;31.63;19.60;;;;;;;;;;5032394;28;20029;-81
2022/05/03 12:35:29;;;;;;;36.95;19.23;;;;;;;;;;5032045;28;20384;-81
2022/05/03 12:37:55;;;;;;;31.88;18.42;;;;;;;;;;5032625;28;20028;-81
2022/05/03 12:40:26;;;;;;;41.00;18.70;;;;;;;;;;5032283;28;20018;-81
2022/05/03 12:42:52;;;;;;;34.90;18.33;;;;;;;;;;5032503;28;20029;-81
2022/05/03 12:45:21;;;;;;;34.28;19.92;;;;;;;;;;5032490;28;20452;-80
2022/05/03 12:47:51;;;;;;;37.17;17.67;;;;;;;;;;5032466;28;20024;-81
2022/05/03 12:50:18;;;;;;;37.60;18.08;;;;;;;;;;5032515;28;20017;-80
2022/05/03 12:52:45;;;;;;;36.80;17.73;;;;;;;;;;5031149;28;20025;-80
2022/05/03 12:55:11;;;;;;;35.40;17.40;;;;;;;;;;5033956;28;20028;-80
2022/05/03 13:00:22;;;;;;;34.50;17.95;;;;;;;;;;5036159;28;20048;-80
2022/05/03 13:02:49;;;;;;;34.97;16.60;;;;;;;;;;5014863;28;20476;-80
2022/05/03 13:05:15;;;;;;;35.25;16.75;;;;;;;;;;5016070;28;20037;-80
2022/05/03 13:07:41;;;;;;;31.00;16.15;;;;;;;;;;5015943;28;20072;-81
2022/05/03 13:10:07;;;;;;;33.63;16.00;;;;;;;;;;5031138;28;20101;-81
2022/05/03 13:12:33;;;;;;;30.10;15.27;;;;;;;;;;5027602;28;20024;-80
2022/05/03 13:15:00;;;;;;;29.27;13.90;;;;;;;;;;5035365;28;20021;-81
2022/05/03 13:17:26;;;;;;;29.05;13.82;;;;;;;;;;5034769;28;20026;-81
2022/05/03 13:19:52;;;;;;;29.02;13.50;;;;;;;;;;5034839;28;20091;-82
2022/05/03 13:22:18;;;;;;;26.17;13.23;;;;;;;;;;5034723;28;20453;-81
2022/05/03 13:24:44;;;;;;;29.35;13.70;;;;;;;;;;5033296;28;20029;-81
2022/05/03 13:27:10;;;;;;;25.55;13.55;;;;;;;;;;5035616;28;20022;-81
2022/05/03 13:29:36;;;;;;;26.63;13.50;;;;;;;;;;5035517;28;20018;-81
2022/05/03 13:32:02;;;;;;;23.83;12.30;;;;;;;;;;5035381;28;20528;-81
2022/05/03 13:34:28;;;;;;;25.65;12.45;;;;;;;;;;5035212;28;20383;-80
2022/05/03 13:42:24;;;;;;;27.92;12.57;;;;;;;;;;5032495;28;20041;-78
2022/05/03 13:44:50;;;;;;;27.02;12.95;;;;;;;;;;5026744;28;20435;-78
2022/05/03 13:47:16;;;;;;;25.17;13.05;;;;;;;;;;5019907;28;20322;-77
2022/05/03 13:49:42;;;;;;;26.95;12.68;;;;;;;;;;5024833;28;20037;-78
2022/05/03 13:52:08;;;;;;;25.23;12.18;;;;;;;;;;5027304;28;20029;-77
2022/05/03 13:54:35;;;;;;;26.50;12.07;;;;;;;;;;5024740;28;20500;-77
2022/05/03 13:57:01;;;;;;;24.38;12.40;;;;;;;;;;5025880;28;20103;-78
2022/05/03 13:59:27;;;;;;;26.52;12.63;;;;;;;;;;5023064;28;20021;-78
2022/05/03 14:01:53;;;;;;;23.60;11.85;;;;;;;;;;5028072;28;20026;-77
2022/05/03 14:04:19;;;;;;;26.95;12.18;;;;;;;;;;5023179;28;20052;-77
2022/05/03 14:06:45;;;;;;;23.08;10.95;;;;;;;;;;5016520;28;20048;-87
2022/05/03 14:09:11;;;;;;;23.05;11.30;;;;;;;;;;5014264;28;20026;-86
2022/05/03 14:11:37;;;;;;;25.23;10.20;;;;;;;;;;5015539;28;20026;-85
2022/05/03 14:14:04;;;;;;;27.05;11.02;;;;;;;;;;5017710;28;20468;-77
2022/05/03 14:16:30;;;;;;;21.63;10.45;;;;;;;;;;5024893;28;20460;-77
2022/05/03 14:18:58;;;;;;;23.25;10.40;;;;;;;;;;5023035;28;20480;-78
2022/05/03 14:21:24;;;;;;;28.50;10.77;;;;;;;;;;5027787;28;20434;-77
2022/05/03 14:23:51;;;;;;;20.70;10.60;;;;;;;;;;5041206;28;20026;-78
2022/05/03 14:26:18;;;;;;;26.58;10.80;;;;;;;;;;5025612;28;20103;-78
2022/05/03 14:28:46;;;;;;;23.80;10.30;;;;;;;;;;5025465;28;20150;-78
2022/05/03 14:31:12;;;;;;;25.73;11.10;;;;;;;;;;5025856;28;20409;-78
2022/05/03 14:33:38;;;;;;;25.30;11.48;;;;;;;;;;5026614;28;20030;-78
2022/05/03 14:36:04;;;;;;;28.23;10.23;;;;;;;;;;5024601;28;20030;-79
2022/05/03 14:38:30;;;;;;;21.08;10.35;;;;;;;;;;5022620;28;20112;-78
2022/05/03 14:40:56;;;;;;;21.35;10.80;;;;;;;;;;5020822;28;20032;-79
2022/05/03 14:43:23;;;;;;;28.10;11.02;;;;;;;;;;5024469;28;20029;-78
2022/05/03 14:45:49;;;;;;;24.30;10.63;;;;;;;;;;5020941;28;20136;-78
2022/05/03 14:48:15;;;;;;;21.02;10.02;;;;;;;;;;5020755;28;20445;-78
2022/05/03 14:50:41;;;;;;;26.35;11.00;;;;;;;;;;5023970;28;20026;-78
2022/05/03 14:53:08;;;;;;;21.30;10.10;;;;;;;;;;5013971;28;20487;-78
2022/05/03 14:55:35;;;;;;;23.55;10.57;;;;;;;;;;5016581;28;20021;-79
2022/05/03 15:03:33;;;;;;;23.33;10.13;;;;;;;;;;5022160;28;20072;-79
2022/05/03 15:05:59;;;;;;;33.78;11.82;;;;;;;;;;5021810;28;20033;-79
2022/05/03 15:08:25;;;;;;;23.63;11.35;;;;;;;;;;5027318;28;20022;-79
2022/05/03 15:10:51;;;;;;;22.63;10.07;;;;;;;;;;5034182;28;20026;-80
2022/05/03 15:13:17;;;;;;;23.58;9.90;;;;;;;;;;5018809;28;20024;-80
2022/05/03 15:15:44;;;;;;;27.60;10.90;;;;;;;;;;5015866;28;20103;-80
2022/05/03 15:18:10;;;;;;;21.70;9.77;;;;;;;;;;5034035;28;20079;-80
2022/05/03 15:20:37;;;;;;;21.63;9.50;;;;;;;;;;5031975;28;20022;-79
2022/05/03 15:25:49;;;;;;;21.77;9.52;;;;;;;;;;5022398;28;20127;-80